AOJ12 LICR-LOWI
Flight info
| Callsign | AOJ12 |
|---|---|
| Flight time | N/A |
| Altitude | 18000 |
| Route | PAZZE Z854 BAGIX/N0451F400 DCT POLIT DCT TEA DCT BAKEP DCT SUMIR DCT SOTOV/N0423F240 T101 BETOS BETOS1B |
| Aircraft | CL60/M-SBDE1E2E3FGHIJ1J4J5J7M3RWXYZ/LB1V1D1 |
Departure
| Time | N/A |
|---|---|
| Airport | Reggio Calabria Airport (LICR) |
Arrival
| Time | 2026-05-06 17:54 |
|---|---|
| Airport | Innsbruck Airport (LOWI) |
| Time | Latitude | Longitude | Altitude | Speed | Heading |
|---|---|---|---|---|---|
| 2026-05-06 17:42 | 46.99253 | 11.41349 | 13890 ft | 380 kts | 64° |
| 2026-05-06 17:42 | 47.00487 | 11.44760 | 13916 ft | 382 kts | 64° |
| 2026-05-06 17:43 | 47.01761 | 11.48243 | 13900 ft | 384 kts | 61° |
| 2026-05-06 17:43 | 47.03485 | 11.51197 | 13940 ft | 389 kts | 39° |
| 2026-05-06 17:43 | 47.05837 | 11.53095 | 13752 ft | 381 kts | 17° |
| 2026-05-06 17:43 | 47.08386 | 11.53769 | 13497 ft | 363 kts | 5° |
| 2026-05-06 17:44 | 47.10830 | 11.54174 | 13255 ft | 349 kts | 5° |
| 2026-05-06 17:44 | 47.13200 | 11.54557 | 13012 ft | 337 kts | 5° |
| 2026-05-06 17:44 | 47.15551 | 11.54934 | 12757 ft | 326 kts | 5° |
| 2026-05-06 17:44 | 47.17771 | 11.54998 | 12505 ft | 313 kts | 347° |
| 2026-05-06 17:45 | 47.19746 | 11.53787 | 12186 ft | 300 kts | 319° |
| 2026-05-06 17:45 | 47.21059 | 11.51469 | 11657 ft | 292 kts | 291° |
| 2026-05-06 17:45 | 47.21640 | 11.48672 | 11070 ft | 288 kts | 280° |
| 2026-05-06 17:45 | 47.22060 | 11.45785 | 10457 ft | 286 kts | 279° |
| 2026-05-06 17:46 | 47.22456 | 11.42942 | 9838 ft | 286 kts | 279° |
| 2026-05-06 17:46 | 47.22842 | 11.40074 | 9220 ft | 285 kts | 279° |
| 2026-05-06 17:46 | 47.23211 | 11.37264 | 8628 ft | 283 kts | 279° |
| 2026-05-06 17:46 | 47.23577 | 11.34439 | 8038 ft | 281 kts | 278° |
| 2026-05-06 17:47 | 47.23692 | 11.31601 | 7422 ft | 278 kts | 265° |
| 2026-05-06 17:47 | 47.23535 | 11.28806 | 7132 ft | 269 kts | 263° |
| 2026-05-06 17:47 | 47.23413 | 11.26145 | 7077 ft | 254 kts | 271° |
| 2026-05-06 17:47 | 47.23736 | 11.23669 | 7070 ft | 238 kts | 289° |
| 2026-05-06 17:48 | 47.24420 | 11.21541 | 7076 ft | 223 kts | 300° |
| 2026-05-06 17:48 | 47.25203 | 11.19694 | 7083 ft | 206 kts | 302° |
| 2026-05-06 17:48 | 47.25991 | 11.17904 | 7079 ft | 208 kts | 304° |
| 2026-05-06 17:48 | 47.26832 | 11.16195 | 7081 ft | 209 kts | 307° |
| 2026-05-06 17:49 | 47.27781 | 11.14565 | 7072 ft | 209 kts | 317° |
| 2026-05-06 17:49 | 47.29053 | 11.13648 | 6998 ft | 207 kts | 353° |
| 2026-05-06 17:49 | 47.30452 | 11.13787 | 6919 ft | 196 kts | 23° |
| 2026-05-06 17:49 | 47.31511 | 11.14890 | 6846 ft | 182 kts | 42° |
| 2026-05-06 17:50 | 47.32458 | 11.16128 | 6790 ft | 178 kts | 49° |
| 2026-05-06 17:50 | 47.32880 | 11.17740 | 6571 ft | 168 kts | 93° |
| 2026-05-06 17:50 | 47.32451 | 11.19247 | 6284 ft | 163 kts | 133° |
| 2026-05-06 17:50 | 47.31514 | 11.20052 | 5959 ft | 162 kts | 161° |
| 2026-05-06 17:51 | 47.30505 | 11.20519 | 5747 ft | 148 kts | 161° |
| 2026-05-06 17:51 | 47.29538 | 11.20999 | 5448 ft | 146 kts | 155° |
| 2026-05-06 17:51 | 47.28686 | 11.21764 | 5256 ft | 145 kts | 142° |
| 2026-05-06 17:51 | 47.27891 | 11.22695 | 5045 ft | 144 kts | 140° |
| 2026-05-06 17:52 | 47.27164 | 11.23657 | 4764 ft | 142 kts | 131° |
| 2026-05-06 17:52 | 47.26561 | 11.24786 | 4356 ft | 140 kts | 127° |
| 2026-05-06 17:52 | 47.25950 | 11.25892 | 3893 ft | 137 kts | 130° |
| 2026-05-06 17:52 | 47.25363 | 11.26940 | 3390 ft | 135 kts | 124° |
| 2026-05-06 17:53 | 47.25114 | 11.28205 | 2849 ft | 136 kts | 86° |
| 2026-05-06 17:53 | 47.25328 | 11.29498 | 2558 ft | 130 kts | 76° |
| 2026-05-06 17:53 | 47.25601 | 11.30765 | 2334 ft | 131 kts | 75° |
| 2026-05-06 17:53 | 47.25784 | 11.32055 | 2138 ft | 129 kts | 83° |
| 2026-05-06 17:54 | 47.25915 | 11.33354 | 1947 ft | 128 kts | 83° |
| 2026-05-06 17:54 | 47.26030 | 11.34422 | 1924 ft | 68 kts | 80° |
| 2026-05-06 17:54 | 47.26076 | 11.34869 | 1921 ft | 33 kts | 81° |
| 2026-05-06 17:54 | 47.26098 | 11.35055 | 1920 ft | 10 kts | 80° |
| 2026-05-06 17:55 | 47.26107 | 11.35145 | 1919 ft | 2 kts | 81° |
| 2026-05-06 17:55 | 47.26110 | 11.35167 | 1919 ft | 8 kts | 81° |
| 2026-05-06 17:55 | 47.26064 | 11.35250 | 1919 ft | 14 kts | 171° |
| 2026-05-06 17:56 | 47.25955 | 11.35276 | 1920 ft | 16 kts | 171° |
| 2026-05-06 17:56 | 47.25863 | 11.35320 | 1920 ft | 9 kts | 128° |
| 2026-05-06 17:56 | 47.25858 | 11.35346 | 1920 ft | 0 kts | 87° |